createdAt,value
2022-11-02T00:02:01.983Z,44.21
2022-11-02T00:04:50.578Z,44.14
2022-11-02T00:07:39.271Z,44.24
2022-11-02T00:10:30.092Z,44.17
2022-11-02T00:13:18.623Z,44.29
2022-11-02T00:16:10.736Z,44.39
2022-11-02T00:19:01.705Z,44.39
2022-11-02T00:21:50.154Z,44.50
2022-11-02T00:24:38.619Z,44.41
2022-11-02T00:27:27.096Z,44.59
2022-11-02T00:30:15.802Z,44.52
2022-11-02T00:33:04.447Z,44.59
2022-11-02T00:35:54.776Z,44.79
2022-11-02T00:38:43.207Z,44.24
2022-11-02T00:41:31.960Z,44.31
2022-11-02T00:44:20.482Z,44.58
2022-11-02T00:47:08.899Z,44.54
2022-11-02T00:49:57.428Z,44.43
2022-11-02T00:52:47.223Z,44.36
2022-11-02T00:55:35.622Z,44.60
2022-11-02T00:58:24.198Z,44.48
2022-11-02T01:01:12.674Z,44.61
2022-11-02T01:04:01.255Z,44.59
2022-11-02T01:06:49.681Z,44.59
2022-11-02T01:09:39.614Z,44.54
2022-11-02T01:12:28.196Z,44.37
2022-11-02T01:15:16.813Z,44.51
2022-11-02T01:18:05.978Z,44.49
2022-11-02T01:20:57.897Z,44.64
2022-11-02T01:23:46.458Z,44.73
2022-11-02T01:26:36.244Z,44.24
2022-11-02T01:29:24.720Z,44.45
2022-11-02T01:32:13.153Z,44.81
2022-11-02T01:35:02.794Z,44.78
2022-11-02T01:37:51.424Z,44.72
2022-11-02T01:40:40.738Z,44.39
2022-11-02T01:43:32.209Z,44.49
2022-11-02T01:46:22.432Z,44.66
2022-11-02T01:49:12.865Z,44.69
2022-11-02T01:52:06.031Z,44.70
2022-11-02T01:54:56.859Z,44.49
2022-11-02T01:57:48.645Z,44.75
2022-11-02T02:00:38.742Z,44.68
2022-11-02T02:03:27.456Z,44.51
2022-11-02T02:06:17.908Z,44.69
2022-11-02T02:09:07.140Z,44.53
2022-11-02T02:11:55.650Z,44.72
2022-11-02T02:14:44.357Z,44.61
2022-11-02T02:17:41.110Z,44.72
2022-11-02T02:20:43.621Z,44.54
2022-11-02T02:23:41.446Z,44.66
2022-11-02T02:27:01.252Z,44.58
2022-11-02T02:29:55.670Z,44.72
2022-11-02T02:32:48.672Z,44.80
2022-11-02T02:35:41.769Z,44.54
2022-11-02T02:38:33.453Z,44.85
2022-11-02T02:41:25.989Z,44.72
2022-11-02T02:44:18.736Z,44.71
2022-11-02T02:47:14.348Z,44.90
2022-11-02T02:50:07.657Z,44.53
2022-11-02T02:52:57.041Z,44.67
2022-11-02T02:55:48.509Z,44.60
2022-11-02T02:58:40.528Z,44.72
2022-11-02T03:01:29.926Z,44.79
2022-11-02T03:04:19.886Z,44.59
2022-11-02T03:07:09.067Z,44.55
2022-11-02T03:10:06.171Z,44.55
2022-11-02T03:12:58.955Z,44.84
2022-11-02T03:15:52.639Z,44.61
2022-11-02T03:18:49.187Z,44.73
2022-11-02T03:21:41.859Z,44.83
2022-11-02T03:24:35.721Z,44.59
2022-11-02T03:27:29.541Z,44.54
2022-11-02T03:30:20.333Z,44.72
2022-11-02T03:33:11.800Z,44.72
2022-11-02T03:36:05.817Z,44.66
2022-11-02T03:38:58.588Z,44.57
2022-11-02T03:41:49.237Z,44.64
2022-11-02T03:44:43.516Z,44.83
2022-11-02T03:47:35.212Z,44.95
2022-11-02T03:50:24.865Z,44.39
2022-11-02T03:53:16.290Z,44.75
2022-11-02T03:56:09.870Z,44.95
2022-11-02T03:58:58.832Z,44.67
2022-11-02T04:01:49.718Z,44.72
2022-11-02T04:04:49.321Z,44.69
2022-11-02T04:07:56.864Z,44.68
2022-11-02T04:11:05.885Z,44.71
2022-11-02T04:14:13.594Z,44.64
2022-11-02T04:17:19.960Z,44.81
2022-11-02T04:20:09.261Z,44.75
2022-11-02T04:23:15.167Z,44.61
2022-11-02T04:26:03.817Z,44.76
2022-11-02T04:28:52.307Z,44.80
2022-11-02T04:31:42.105Z,44.74
2022-11-02T04:34:29.579Z,44.58
2022-11-02T04:37:31.907Z,44.71
2022-11-02T04:40:20.392Z,44.69
2022-11-02T04:43:08.931Z,44.73
2022-11-02T04:45:59.730Z,44.72
2022-11-02T04:48:49.635Z,44.83
2022-11-02T04:51:40.222Z,44.80
2022-11-02T04:54:28.686Z,44.70
2022-11-02T04:57:17.185Z,44.62
2022-11-02T05:00:07.749Z,44.76
2022-11-02T05:02:56.218Z,44.91
2022-11-02T05:05:46.087Z,44.74
2022-11-02T05:08:34.618Z,44.80
2022-11-02T05:11:23.094Z,44.79
2022-11-02T05:14:11.594Z,44.90
2022-11-02T05:17:00.034Z,44.86
2022-11-02T05:19:48.480Z,44.95
2022-11-02T05:22:38.468Z,44.60
2022-11-02T05:25:26.921Z,44.78
2022-11-02T05:28:15.464Z,44.81
2022-11-02T05:31:04.841Z,39.10
2022-11-02T05:33:53.368Z,37.31
2022-11-02T05:36:41.809Z,36.16
2022-11-02T05:39:31.611Z,36.04
2022-11-02T05:42:20.171Z,38.08
2022-11-02T05:45:09.327Z,39.99
2022-11-02T05:48:01.440Z,40.33
2022-11-02T05:50:49.942Z,40.34
2022-11-02T05:53:38.560Z,40.77
2022-11-02T05:56:31.066Z,40.50
2022-11-02T05:59:19.580Z,40.35
2022-11-02T06:02:08.109Z,40.48
2022-11-02T06:04:56.662Z,40.47
2022-11-02T06:07:45.248Z,40.38
2022-11-02T06:10:33.718Z,40.59
2022-11-02T06:13:23.595Z,40.61
2022-11-02T06:16:18.721Z,40.79
2022-11-02T06:19:11.036Z,40.44
2022-11-02T06:21:59.518Z,40.60
2022-11-02T06:24:47.976Z,40.63
2022-11-02T06:27:37.782Z,40.54
2022-11-02T06:30:29.809Z,40.62
2022-11-02T06:33:19.261Z,40.57
2022-11-02T06:36:08.480Z,40.46
2022-11-02T06:38:56.948Z,40.54
2022-11-02T06:41:45.768Z,40.47
2022-11-02T06:44:34.318Z,40.60
2022-11-02T06:47:24.306Z,40.47
2022-11-02T06:50:12.708Z,40.28
2022-11-02T06:53:01.262Z,40.34
2022-11-02T06:55:53.702Z,40.42
2022-11-02T06:58:42.169Z,40.19
2022-11-02T07:01:30.823Z,40.17
2022-11-02T07:04:20.893Z,40.55
2022-11-02T07:07:09.426Z,40.34
2022-11-02T07:09:57.869Z,40.18
2022-11-02T07:12:46.497Z,40.08
2022-11-02T07:15:35.024Z,40.36
2022-11-02T07:18:23.851Z,40.03
2022-11-02T07:21:13.977Z,40.10
2022-11-02T07:24:02.635Z,40.12
2022-11-02T07:26:52.768Z,40.00
2022-11-02T07:29:41.403Z,40.03
2022-11-02T07:32:29.962Z,40.13
2022-11-02T07:35:19.082Z,39.99
2022-11-02T07:38:09.518Z,40.01
2022-11-02T07:40:58.346Z,39.86
2022-11-02T07:43:47.058Z,39.79
2022-11-02T07:46:35.674Z,39.86
2022-11-02T07:49:24.706Z,39.74
2022-11-02T07:52:13.692Z,39.71
2022-11-02T07:55:03.965Z,39.99
2022-11-02T07:57:55.997Z,39.74
2022-11-02T08:00:46.353Z,39.90
2022-11-02T08:03:34.863Z,39.20
2022-11-02T08:06:23.427Z,39.71
2022-11-02T08:09:12.451Z,40.08
2022-11-02T08:12:02.394Z,39.72
2022-11-02T08:14:50.787Z,39.84
2022-11-02T08:17:39.396Z,39.89
2022-11-02T08:20:27.935Z,39.96
2022-11-02T08:23:17.390Z,40.13
2022-11-02T08:26:06.015Z,40.10
2022-11-02T08:28:55.870Z,39.77
2022-11-02T08:31:46.464Z,39.75
2022-11-02T08:34:35.100Z,40.20
2022-11-02T08:37:23.653Z,40.12
2022-11-02T08:40:13.333Z,39.89
2022-11-02T08:43:04.032Z,40.08
2022-11-02T08:46:13.746Z,40.30
2022-11-02T08:49:02.540Z,40.27
2022-11-02T08:51:51.002Z,40.56
2022-11-02T08:54:39.464Z,40.43
2022-11-02T08:57:27.923Z,40.44
2022-11-02T09:00:17.182Z,40.15
2022-11-02T09:03:08.749Z,39.88
2022-11-02T09:06:01.489Z,39.97
2022-11-02T09:08:52.725Z,39.63
2022-11-02T09:11:45.040Z,39.82
2022-11-02T09:14:34.676Z,39.90
2022-11-02T09:17:23.317Z,39.71
2022-11-02T09:20:13.692Z,39.55
2022-11-02T09:23:02.467Z,39.29
2022-11-02T09:25:51.814Z,39.21
2022-11-02T09:28:40.557Z,39.52
2022-11-02T09:31:30.477Z,39.04
2022-11-02T09:34:19.498Z,39.45
2022-11-02T09:37:09.635Z,39.15
2022-11-02T09:39:58.306Z,39.46
2022-11-02T09:42:55.781Z,38.92
2022-11-02T09:45:53.618Z,39.02
2022-11-02T09:48:43.990Z,38.85
2022-11-02T09:51:36.247Z,39.10
2022-11-02T09:54:30.708Z,39.16
2022-11-02T09:57:23.730Z,39.47
2022-11-02T10:00:15.864Z,39.40
2022-11-02T10:03:17.318Z,39.40
2022-11-02T10:06:10.072Z,39.61
2022-11-02T10:09:03.166Z,39.63
2022-11-02T10:11:57.968Z,39.56
2022-11-02T10:14:54.973Z,39.41
2022-11-02T10:17:44.240Z,39.53
2022-11-02T10:20:40.249Z,39.54
2022-11-02T10:23:33.033Z,39.64
2022-11-02T10:26:24.987Z,39.34
2022-11-02T10:29:18.432Z,39.76
2022-11-02T10:32:07.418Z,39.63
2022-11-02T10:34:59.202Z,39.26
2022-11-02T10:38:14.568Z,39.53
2022-11-02T10:41:15.816Z,39.37
2022-11-02T10:44:23.211Z,39.37
2022-11-02T10:47:16.391Z,39.48
2022-11-02T10:50:17.224Z,39.12
2022-11-02T10:53:39.493Z,39.09
2022-11-02T10:56:25.313Z,39.29
2022-11-02T10:59:16.108Z,39.19
2022-11-02T11:02:16.640Z,39.43
2022-11-02T11:05:14.509Z,39.34
2022-11-02T11:08:04.286Z,39.00
2022-11-02T11:10:53.463Z,39.11
2022-11-02T11:16:57.072Z,39.36
2022-11-02T11:19:52.773Z,39.28
2022-11-02T11:22:42.197Z,38.82
2022-11-02T11:25:32.451Z,39.19
2022-11-02T11:28:27.036Z,38.83
2022-11-02T11:31:18.588Z,38.68
2022-11-02T11:34:07.857Z,38.57
2022-11-02T11:37:06.665Z,38.70
2022-11-02T11:39:58.418Z,38.77
2022-11-02T11:42:50.005Z,38.47
2022-11-02T11:45:40.157Z,38.69
2022-11-02T11:48:36.546Z,39.09
2022-11-02T11:51:33.424Z,38.90
2022-11-02T11:54:27.012Z,38.69
2022-11-02T11:57:26.119Z,39.04
2022-11-02T12:00:27.431Z,38.86
2022-11-02T12:03:16.380Z,38.71
2022-11-02T12:06:14.581Z,38.71
2022-11-02T12:09:08.755Z,38.90
2022-11-02T12:12:05.847Z,38.63
2022-11-02T12:15:07.044Z,38.94
2022-11-02T12:18:07.758Z,38.51
2022-11-02T12:21:04.718Z,38.56
2022-11-02T12:24:07.008Z,38.63
2022-11-02T12:27:09.652Z,38.74
2022-11-02T12:30:19.422Z,38.97
2022-11-02T12:33:18.366Z,38.77
2022-11-02T12:36:15.852Z,38.45
2022-11-02T12:39:09.136Z,38.40
2022-11-02T12:42:07.484Z,38.89
2022-11-02T12:45:07.628Z,38.36
2022-11-02T12:48:00.590Z,38.31
2022-11-02T12:50:56.781Z,38.14
2022-11-02T12:53:48.933Z,38.06
2022-11-02T12:56:45.859Z,38.15
2022-11-02T12:59:36.552Z,38.04
2022-11-02T13:02:28.852Z,38.32
2022-11-02T13:05:19.225Z,38.26
2022-11-02T13:08:13.741Z,38.24
2022-11-02T13:11:07.367Z,37.72
2022-11-02T13:13:58.343Z,37.53
2022-11-02T13:16:52.505Z,37.63
2022-11-02T13:19:43.962Z,37.17
2022-11-02T13:22:35.933Z,37.24
2022-11-02T13:25:32.577Z,37.49
2022-11-02T13:28:26.883Z,37.16
2022-11-02T13:31:19.953Z,37.39
2022-11-02T13:34:14.869Z,37.08
2022-11-02T13:37:11.934Z,37.39
2022-11-02T13:40:03.408Z,37.26
2022-11-02T13:43:16.937Z,37.46
2022-11-02T13:46:18.259Z,37.29
2022-11-02T13:49:08.170Z,36.82
2022-11-02T13:52:00.961Z,37.01
2022-11-02T13:54:52.417Z,37.39
2022-11-02T13:57:42.844Z,37.10
2022-11-02T14:00:33.793Z,37.17
2022-11-02T14:03:25.514Z,37.16
2022-11-02T14:06:15.555Z,37.13
2022-11-02T14:09:07.358Z,36.96
2022-11-02T14:12:14.687Z,36.92
2022-11-02T14:15:49.151Z,36.83
2022-11-02T14:18:38.196Z,37.13
2022-11-02T14:21:44.067Z,37.04
2022-11-02T14:24:57.084Z,37.32
2022-11-02T14:27:46.145Z,37.44
2022-11-02T14:30:45.733Z,37.18
2022-11-02T14:33:50.581Z,37.21
2022-11-02T14:36:50.559Z,37.17
2022-11-02T14:39:47.287Z,37.01
2022-11-02T14:42:49.027Z,36.96
2022-11-02T14:45:58.139Z,36.94
2022-11-02T14:48:49.344Z,36.99
2022-11-02T14:51:39.243Z,36.92
2022-11-02T14:54:28.702Z,36.58
2022-11-02T14:57:22.799Z,37.14
2022-11-02T15:00:22.327Z,37.21
2022-11-02T15:03:31.104Z,37.21
2022-11-02T15:06:26.688Z,37.51
2022-11-02T15:09:15.747Z,37.39
2022-11-02T15:12:26.002Z,38.03
2022-11-02T15:15:34.926Z,37.85
2022-11-02T15:18:26.081Z,37.68
2022-11-02T15:21:30.748Z,37.86
2022-11-02T15:24:21.830Z,37.66
2022-11-02T15:27:14.993Z,37.81
2022-11-02T15:30:04.589Z,37.81
2022-11-02T15:33:01.242Z,34.09
2022-11-02T15:35:53.892Z,33.06
2022-11-02T15:38:42.906Z,32.39
2022-11-02T15:41:40.245Z,32.78
2022-11-02T15:44:42.336Z,32.65
2022-11-02T15:47:37.683Z,32.88
2022-11-02T15:50:44.876Z,34.86
2022-11-02T15:53:41.795Z,35.78
2022-11-02T15:56:46.620Z,36.06
2022-11-02T15:59:54.227Z,35.75
2022-11-02T16:02:44.216Z,36.06
2022-11-02T16:05:35.408Z,35.88
2022-11-02T16:08:26.257Z,36.20
2022-11-02T16:11:19.827Z,36.29
2022-11-02T16:14:17.620Z,36.57
2022-11-02T16:17:06.493Z,36.76
2022-11-02T16:20:10.738Z,37.05
2022-11-02T16:23:02.219Z,37.17
2022-11-02T16:25:53.132Z,37.34
2022-11-02T16:28:42.136Z,37.65
2022-11-02T16:31:33.028Z,37.74
2022-11-02T16:34:23.749Z,38.03
2022-11-02T16:37:15.771Z,38.03
2022-11-02T16:40:07.063Z,38.43
2022-11-02T16:43:14.428Z,38.88
2022-11-02T16:46:06.748Z,38.66
2022-11-02T16:52:39.292Z,38.99
2022-11-02T16:59:04.337Z,38.71
2022-11-02T17:01:53.857Z,38.67
2022-11-02T17:04:44.428Z,38.95
2022-11-02T17:07:35.453Z,39.04
2022-11-02T17:10:28.098Z,39.19
2022-11-02T17:13:22.078Z,39.17
2022-11-02T17:16:14.198Z,39.10
2022-11-02T17:19:04.910Z,39.45
2022-11-02T17:22:08.077Z,39.29
2022-11-02T17:25:14.865Z,39.29
2022-11-02T17:28:27.480Z,39.57
2022-11-02T17:31:20.842Z,39.11
2022-11-02T17:34:12.829Z,39.32
2022-11-02T17:37:02.657Z,39.41
2022-11-02T17:39:51.708Z,39.42
2022-11-02T17:43:00.916Z,39.51
2022-11-02T17:45:55.606Z,39.51
2022-11-02T17:48:45.986Z,39.84
2022-11-02T17:51:34.549Z,39.59
2022-11-02T17:54:23.725Z,39.75
2022-11-02T17:57:13.387Z,39.63
2022-11-02T18:00:01.913Z,40.73
2022-11-02T18:02:51.728Z,40.12
2022-11-02T18:05:43.747Z,40.70
2022-11-02T18:08:55.249Z,41.02
2022-11-02T18:11:43.721Z,41.41
2022-11-02T18:14:32.165Z,41.70
2022-11-02T18:17:20.627Z,41.79
2022-11-02T18:20:10.575Z,41.91
2022-11-02T18:23:00.786Z,42.00
2022-11-02T18:25:50.983Z,41.42
2022-11-02T18:28:42.361Z,40.85
2022-11-02T18:31:30.897Z,40.83
2022-11-02T18:34:19.397Z,40.94
2022-11-02T18:37:10.611Z,40.60
2022-11-02T19:12:48.230Z,40.78
2022-11-02T19:15:42.398Z,40.83
2022-11-02T19:18:31.337Z,40.86
2022-11-02T19:21:19.851Z,40.81
2022-11-02T19:24:09.334Z,40.92
2022-11-02T19:26:57.851Z,40.93
2022-11-02T19:29:46.482Z,40.84
2022-11-02T19:32:36.289Z,40.86
2022-11-02T19:35:24.931Z,40.77
2022-11-02T19:38:13.386Z,40.48
2022-11-02T19:41:02.742Z,40.44
2022-11-02T19:43:52.083Z,40.44
2022-11-02T19:49:37.820Z,40.64
2022-11-02T19:52:26.367Z,40.60
2022-11-02T19:55:14.784Z,40.67
2022-11-02T19:58:03.460Z,40.75
2022-11-02T20:00:52.372Z,40.67
2022-11-02T20:03:41.213Z,40.86
2022-11-02T20:06:34.089Z,40.65
2022-11-02T20:09:22.583Z,40.70
2022-11-02T20:12:11.055Z,40.63
2022-11-02T20:14:59.623Z,40.95
2022-11-02T20:18:18.211Z,40.76
2022-11-02T20:21:04.333Z,40.83
2022-11-02T20:23:55.532Z,40.76
2022-11-02T20:26:44.028Z,40.87
2022-11-02T20:29:32.573Z,41.04
2022-11-02T20:32:23.346Z,40.86
2022-11-02T20:35:13.982Z,40.98
2022-11-02T20:38:02.882Z,40.85
2022-11-02T20:40:52.924Z,40.76
2022-11-02T20:43:45.906Z,40.80
2022-11-02T20:46:39.990Z,40.64
2022-11-02T20:49:49.404Z,40.89
2022-11-02T20:52:38.381Z,40.61
2022-11-02T20:55:27.270Z,40.87
2022-11-02T20:58:17.079Z,41.02
2022-11-02T21:01:05.686Z,40.78
2022-11-02T21:03:54.296Z,40.66
2022-11-02T21:06:42.856Z,40.72
2022-11-02T21:09:31.397Z,40.55
2022-11-02T21:12:37.673Z,40.63
2022-11-02T21:15:28.155Z,40.55
2022-11-02T21:18:17.183Z,40.56
2022-11-02T21:21:07.108Z,40.64
2022-11-02T21:23:57.020Z,40.59
2022-11-02T21:26:45.551Z,40.66
2022-11-02T21:29:34.192Z,40.55
2022-11-02T21:32:35.512Z,40.74
2022-11-02T21:35:24.205Z,40.60
2022-11-02T21:38:17.114Z,40.32
2022-11-02T21:41:07.310Z,40.08
2022-11-02T21:43:55.993Z,40.14
2022-11-02T21:46:44.527Z,40.06
2022-11-02T21:49:34.351Z,40.13
2022-11-02T21:52:22.785Z,40.30
2022-11-02T21:55:11.808Z,40.00
2022-11-02T21:58:00.163Z,40.39
2022-11-02T22:01:06.094Z,40.43
2022-11-02T22:03:54.665Z,40.31
2022-11-02T22:06:44.782Z,40.20
2022-11-02T22:09:33.520Z,40.30
2022-11-02T22:12:39.997Z,40.28
2022-11-02T22:15:28.448Z,39.95
2022-11-02T22:18:20.146Z,39.85
2022-11-02T22:21:08.645Z,40.39
2022-11-02T22:24:01.083Z,40.37
2022-11-02T22:26:51.300Z,40.32
2022-11-02T22:29:39.771Z,40.53
2022-11-02T22:32:28.270Z,40.54
2022-11-02T22:35:19.299Z,40.52
2022-11-02T22:38:25.537Z,40.34
2022-11-02T22:41:15.736Z,40.51
2022-11-02T22:44:06.258Z,40.33
2022-11-02T22:46:54.679Z,40.36
2022-11-02T22:49:43.203Z,40.19
2022-11-02T22:52:31.600Z,40.27
2022-11-02T22:55:20.175Z,40.16
2022-11-02T22:58:09.914Z,39.68
2022-11-02T23:00:58.682Z,39.92
2022-11-02T23:03:47.801Z,39.96
2022-11-02T23:06:36.680Z,40.11
2022-11-02T23:09:25.158Z,40.15
2022-11-02T23:12:13.757Z,39.89
2022-11-02T23:15:03.552Z,39.94
2022-11-02T23:17:52.016Z,40.05
2022-11-02T23:20:39.522Z,39.89
2022-11-02T23:23:45.502Z,40.08
2022-11-02T23:26:34.195Z,39.93
2022-11-02T23:29:40.360Z,39.95
2022-11-02T23:32:30.878Z,39.33
2022-11-02T23:35:37.136Z,39.59
2022-11-02T23:38:45.661Z,39.74
2022-11-02T23:41:35.617Z,39.75
2022-11-02T23:44:24.018Z,39.76
2022-11-02T23:47:14.191Z,39.70
2022-11-02T23:50:07.935Z,39.89
2022-11-02T23:53:13.867Z,39.84
2022-11-02T23:56:20.043Z,39.72
2022-11-02T23:59:08.496Z,39.83
